sensor_id;sensor_type;location;lat;lon;timestamp;pressure;altitude;pressure_sealevel;temperature;humidity
75013;BME280;63567;49.956;20.130;2022-12-18T00:01:29;98433.50;;;-5.64;83.34
75013;BME280;63567;49.956;20.130;2022-12-18T00:03:56;98432.59;;;-5.63;83.83
75013;BME280;63567;49.956;20.130;2022-12-18T00:06:23;98428.38;;;-5.64;83.71
75013;BME280;63567;49.956;20.130;2022-12-18T00:08:50;98436.19;;;-5.68;83.67
75013;BME280;63567;49.956;20.130;2022-12-18T00:11:18;98437.78;;;-5.64;84.07
75013;BME280;63567;49.956;20.130;2022-12-18T00:13:44;98445.25;;;-5.58;83.59
75013;BME280;63567;49.956;20.130;2022-12-18T00:16:16;98454.69;;;-5.59;83.78
75013;BME280;63567;49.956;20.130;2022-12-18T00:18:43;98453.97;;;-5.62;84.07
75013;BME280;63567;49.956;20.130;2022-12-18T00:21:11;98458.81;;;-5.53;82.97
75013;BME280;63567;49.956;20.130;2022-12-18T00:23:37;98463.97;;;-5.54;83.73
75013;BME280;63567;49.956;20.130;2022-12-18T00:26:06;98466.53;;;-5.54;83.06
75013;BME280;63567;49.956;20.130;2022-12-18T00:28:32;98468.00;;;-5.47;83.03
75013;BME280;63567;49.956;20.130;2022-12-18T00:31:05;98475.53;;;-5.43;82.47
75013;BME280;63567;49.956;20.130;2022-12-18T00:33:31;98485.47;;;-5.57;83.44
75013;BME280;63567;49.956;20.130;2022-12-18T00:36:05;98476.03;;;-5.57;82.99
75013;BME280;63567;49.956;20.130;2022-12-18T00:38:30;98486.97;;;-5.51;83.14
75013;BME280;63567;49.956;20.130;2022-12-18T00:40:55;98485.00;;;-5.45;82.41
75013;BME280;63567;49.956;20.130;2022-12-18T00:43:21;98478.66;;;-5.60;82.85
75013;BME280;63567;49.956;20.130;2022-12-18T00:45:46;98489.38;;;-5.72;83.27
75013;BME280;63567;49.956;20.130;2022-12-18T00:48:11;98495.56;;;-5.52;83.85
75013;BME280;63567;49.956;20.130;2022-12-18T00:50:37;98503.25;;;-5.52;83.14
75013;BME280;63567;49.956;20.130;2022-12-18T00:53:02;98504.66;;;-5.69;82.90
75013;BME280;63567;49.956;20.130;2022-12-18T00:55:27;98504.56;;;-5.66;83.13
75013;BME280;63567;49.956;20.130;2022-12-18T00:57:53;98514.91;;;-5.69;83.53
75013;BME280;63567;49.956;20.130;2022-12-18T01:00:18;98514.91;;;-5.69;83.33
75013;BME280;63567;49.956;20.130;2022-12-18T01:02:44;98506.91;;;-5.60;83.72
75013;BME280;63567;49.956;20.130;2022-12-18T01:05:11;98513.53;;;-5.52;83.16
75013;BME280;63567;49.956;20.130;2022-12-18T01:07:36;98513.63;;;-5.55;83.57
75013;BME280;63567;49.956;20.130;2022-12-18T01:10:03;98513.81;;;-5.62;83.36
75013;BME280;63567;49.956;20.130;2022-12-18T01:12:28;98516.13;;;-5.54;83.41
75013;BME280;63567;49.956;20.130;2022-12-18T01:14:54;98517.72;;;-5.50;82.53
75013;BME280;63567;49.956;20.130;2022-12-18T01:17:19;98525.41;;;-5.50;83.08
75013;BME280;63567;49.956;20.130;2022-12-18T01:19:44;98524.63;;;-5.52;83.60
75013;BME280;63567;49.956;20.130;2022-12-18T01:22:10;98526.44;;;-5.55;82.97
75013;BME280;63567;49.956;20.130;2022-12-18T01:24:35;98535.53;;;-5.45;82.52
75013;BME280;63567;49.956;20.130;2022-12-18T01:27:00;98537.00;;;-5.38;82.59
75013;BME280;63567;49.956;20.130;2022-12-18T01:29:26;98533.91;;;-5.48;82.91
75013;BME280;63567;49.956;20.130;2022-12-18T01:31:55;98534.66;;;-5.44;82.53
75013;BME280;63567;49.956;20.130;2022-12-18T01:34:20;98536.38;;;-5.45;82.75
75013;BME280;63567;49.956;20.130;2022-12-18T01:36:45;98532.50;;;-5.57;83.13
75013;BME280;63567;49.956;20.130;2022-12-18T01:39:13;98545.97;;;-5.50;82.61
75013;BME280;63567;49.956;20.130;2022-12-18T01:41:39;98543.50;;;-5.53;82.56
75013;BME280;63567;49.956;20.130;2022-12-18T01:47:39;98543.06;;;-5.41;82.64
75013;BME280;63567;49.956;20.130;2022-12-18T01:52:34;98549.19;;;-5.45;82.30
75013;BME280;63567;49.956;20.130;2022-12-18T01:55:02;98545.13;;;-5.50;82.59
75013;BME280;63567;49.956;20.130;2022-12-18T01:57:29;98545.91;;;-5.48;82.87
75013;BME280;63567;49.956;20.130;2022-12-18T01:59:59;98552.56;;;-5.43;83.09
75013;BME280;63567;49.956;20.130;2022-12-18T02:02:27;98559.59;;;-5.48;83.34
75013;BME280;63567;49.956;20.130;2022-12-18T02:04:54;98557.84;;;-5.47;82.66
75013;BME280;63567;49.956;20.130;2022-12-18T02:10:13;98568.88;;;-5.44;82.63
75013;BME280;63567;49.956;20.130;2022-12-18T02:15:42;98584.13;;;-5.39;82.22
75013;BME280;63567;49.956;20.130;2022-12-18T02:18:14;98591.19;;;-5.46;82.73
75013;BME280;63567;49.956;20.130;2022-12-18T02:20:47;98587.66;;;-5.43;82.81
75013;BME280;63567;49.956;20.130;2022-12-18T02:28:44;98596.31;;;-5.46;82.16
75013;BME280;63567;49.956;20.130;2022-12-18T02:31:16;98611.16;;;-5.55;82.38
75013;BME280;63567;49.956;20.130;2022-12-18T02:33:43;98605.16;;;-5.54;83.15
75013;BME280;63567;49.956;20.130;2022-12-18T02:36:10;98607.59;;;-5.51;82.85
75013;BME280;63567;49.956;20.130;2022-12-18T02:38:38;98609.09;;;-5.44;82.39
75013;BME280;63567;49.956;20.130;2022-12-18T02:41:05;98606.44;;;-5.41;82.47
75013;BME280;63567;49.956;20.130;2022-12-18T02:43:31;98604.63;;;-5.38;82.15
75013;BME280;63567;49.956;20.130;2022-12-18T02:45:58;98610.59;;;-5.37;82.50
75013;BME280;63567;49.956;20.130;2022-12-18T02:48:29;98612.00;;;-5.28;82.40
75013;BME280;63567;49.956;20.130;2022-12-18T02:51:13;98624.88;;;-5.30;82.66
75013;BME280;63567;49.956;20.130;2022-12-18T02:53:47;98620.25;;;-5.45;82.55
75013;BME280;63567;49.956;20.130;2022-12-18T02:59:17;98625.44;;;-5.47;82.42
75013;BME280;63567;49.956;20.130;2022-12-18T03:02:15;98627.94;;;-5.45;82.55
75013;BME280;63567;49.956;20.130;2022-12-18T03:04:53;98632.00;;;-5.65;83.12
75013;BME280;63567;49.956;20.130;2022-12-18T03:07:27;98627.34;;;-5.53;82.69
75013;BME280;63567;49.956;20.130;2022-12-18T03:09:54;98631.69;;;-5.55;82.46
75013;BME280;63567;49.956;20.130;2022-12-18T03:12:24;98640.03;;;-5.49;82.46
75013;BME280;63567;49.956;20.130;2022-12-18T03:17:27;98647.97;;;-5.55;82.97
75013;BME280;63567;49.956;20.130;2022-12-18T03:19:58;98659.84;;;-5.52;82.54
75013;BME280;63567;49.956;20.130;2022-12-18T03:22:27;98645.16;;;-5.49;82.52
75013;BME280;63567;49.956;20.130;2022-12-18T03:24:55;98645.97;;;-5.47;82.70
75013;BME280;63567;49.956;20.130;2022-12-18T03:27:23;98647.50;;;-5.41;82.14
75013;BME280;63567;49.956;20.130;2022-12-18T03:29:57;98653.72;;;-5.48;82.49
75013;BME280;63567;49.956;20.130;2022-12-18T03:32:36;98654.28;;;-5.67;82.33
75013;BME280;63567;49.956;20.130;2022-12-18T03:35:04;98664.41;;;-5.62;82.72
75013;BME280;63567;49.956;20.130;2022-12-18T03:37:31;98668.53;;;-5.57;82.98
75013;BME280;63567;49.956;20.130;2022-12-18T03:39:56;98665.03;;;-5.54;82.31
75013;BME280;63567;49.956;20.130;2022-12-18T03:45:12;98665.84;;;-5.53;82.14
75013;BME280;63567;49.956;20.130;2022-12-18T03:50:16;98684.13;;;-5.63;82.37
75013;BME280;63567;49.956;20.130;2022-12-18T03:52:54;98691.97;;;-5.67;82.70
75013;BME280;63567;49.956;20.130;2022-12-18T03:55:22;98688.22;;;-5.57;82.72
75013;BME280;63567;49.956;20.130;2022-12-18T03:57:51;98692.59;;;-5.61;82.23
75013;BME280;63567;49.956;20.130;2022-12-18T04:00:18;98693.44;;;-5.60;83.16
75013;BME280;63567;49.956;20.130;2022-12-18T04:02:48;98681.66;;;-5.66;82.21
75013;BME280;63567;49.956;20.130;2022-12-18T04:05:15;98688.34;;;-5.62;82.89
75013;BME280;63567;49.956;20.130;2022-12-18T04:07:41;98697.31;;;-5.75;83.08
75013;BME280;63567;49.956;20.130;2022-12-18T04:10:08;98703.03;;;-5.65;82.61
75013;BME280;63567;49.956;20.130;2022-12-18T04:12:37;98703.88;;;-5.66;82.95
75013;BME280;63567;49.956;20.130;2022-12-18T04:15:02;98700.28;;;-5.59;82.33
75013;BME280;63567;49.956;20.130;2022-12-18T04:17:28;98703.53;;;-5.54;81.87
75013;BME280;63567;49.956;20.130;2022-12-18T04:19:53;98704.47;;;-5.57;82.05
75013;BME280;63567;49.956;20.130;2022-12-18T04:22:18;98704.34;;;-5.53;82.66
75013;BME280;63567;49.956;20.130;2022-12-18T04:24:44;98706.25;;;-5.59;81.99
75013;BME280;63567;49.956;20.130;2022-12-18T04:27:09;98705.53;;;-5.64;82.30
75013;BME280;63567;49.956;20.130;2022-12-18T04:29:34;98715.06;;;-5.67;82.37
75013;BME280;63567;49.956;20.130;2022-12-18T04:32:00;98715.00;;;-5.66;82.34
75013;BME280;63567;49.956;20.130;2022-12-18T04:34:25;98719.59;;;-5.77;82.86
75013;BME280;63567;49.956;20.130;2022-12-18T04:36:50;98719.59;;;-5.77;83.43
75013;BME280;63567;49.956;20.130;2022-12-18T04:39:16;98720.63;;;-5.83;83.01
75013;BME280;63567;49.956;20.130;2022-12-18T04:41:41;98726.63;;;-5.84;83.66
75013;BME280;63567;49.956;20.130;2022-12-18T04:44:06;98730.91;;;-5.83;83.31
75013;BME280;63567;49.956;20.130;2022-12-18T04:46:32;98729.97;;;-5.80;83.50
75013;BME280;63567;49.956;20.130;2022-12-18T04:48:57;98722.53;;;-5.89;83.75
75013;BME280;63567;49.956;20.130;2022-12-18T04:51:22;98732.16;;;-5.96;83.31
75013;BME280;63567;49.956;20.130;2022-12-18T04:53:47;98736.22;;;-5.90;83.20
75013;BME280;63567;49.956;20.130;2022-12-18T04:56:14;98740.41;;;-5.86;83.46
75013;BME280;63567;49.956;20.130;2022-12-18T04:58:41;98750.75;;;-5.89;83.54
75013;BME280;63567;49.956;20.130;2022-12-18T05:01:07;98760.09;;;-5.87;82.98
75013;BME280;63567;49.956;20.130;2022-12-18T05:03:32;98756.97;;;-5.96;83.74
75013;BME280;63567;49.956;20.130;2022-12-18T05:05:58;98755.38;;;-6.01;83.10
75013;BME280;63567;49.956;20.130;2022-12-18T05:08:23;98746.13;;;-6.06;84.23
75013;BME280;63567;49.956;20.130;2022-12-18T05:10:48;98763.38;;;-6.11;83.62
75013;BME280;63567;49.956;20.130;2022-12-18T05:13:14;98757.25;;;-6.07;84.45
75013;BME280;63567;49.956;20.130;2022-12-18T05:15:39;98764.22;;;-6.11;83.95
75013;BME280;63567;49.956;20.130;2022-12-18T05:18:06;98762.66;;;-6.18;84.57
75013;BME280;63567;49.956;20.130;2022-12-18T05:20:32;98765.94;;;-6.11;83.56
75013;BME280;63567;49.956;20.130;2022-12-18T05:22:57;98768.56;;;-6.14;83.92
75013;BME280;63567;49.956;20.130;2022-12-18T05:25:23;98773.69;;;-6.14;83.91
75013;BME280;63567;49.956;20.130;2022-12-18T05:27:49;98768.53;;;-6.13;83.71
75013;BME280;63567;49.956;20.130;2022-12-18T05:30:15;98771.00;;;-6.10;83.49
75013;BME280;63567;49.956;20.130;2022-12-18T05:32:40;98768.59;;;-6.16;84.07
75013;BME280;63567;49.956;20.130;2022-12-18T05:35:08;98771.75;;;-6.05;84.06
75013;BME280;63567;49.956;20.130;2022-12-18T05:37:33;98773.50;;;-6.07;83.59
75013;BME280;63567;49.956;20.130;2022-12-18T05:39:59;98778.53;;;-6.04;83.64
75013;BME280;63567;49.956;20.130;2022-12-18T05:42:24;98776.22;;;-6.13;84.26
75013;BME280;63567;49.956;20.130;2022-12-18T05:44:49;98769.41;;;-6.14;83.90
75013;BME280;63567;49.956;20.130;2022-12-18T05:47:15;98776.41;;;-6.21;84.60
75013;BME280;63567;49.956;20.130;2022-12-18T05:49:40;98778.16;;;-6.21;84.37
75013;BME280;63567;49.956;20.130;2022-12-18T05:52:05;98787.31;;;-6.12;83.74
75013;BME280;63567;49.956;20.130;2022-12-18T05:54:31;98784.69;;;-6.09;83.31
75013;BME280;63567;49.956;20.130;2022-12-18T05:56:57;98792.38;;;-6.09;83.68
75013;BME280;63567;49.956;20.130;2022-12-18T05:59:22;98789.75;;;-6.08;83.71
75013;BME280;63567;49.956;20.130;2022-12-18T06:01:47;98794.06;;;-6.08;83.53
75013;BME280;63567;49.956;20.130;2022-12-18T06:04:13;98795.72;;;-6.07;83.03
75013;BME280;63567;49.956;20.130;2022-12-18T06:06:38;98805.00;;;-6.02;83.25
75013;BME280;63567;49.956;20.130;2022-12-18T06:09:04;98805.09;;;-6.05;83.63
75013;BME280;63567;49.956;20.130;2022-12-18T06:11:34;98811.69;;;-5.96;82.84
75013;BME280;63567;49.956;20.130;2022-12-18T06:14:00;98817.22;;;-6.11;83.57
75013;BME280;63567;49.956;20.130;2022-12-18T06:16:27;98822.13;;;-6.02;84.08
75013;BME280;63567;49.956;20.130;2022-12-18T06:18:53;98826.41;;;-6.03;83.55
75013;BME280;63567;49.956;20.130;2022-12-18T06:21:18;98828.78;;;-5.96;83.83
75013;BME280;63567;49.956;20.130;2022-12-18T06:23:43;98840.03;;;-6.01;83.15
75013;BME280;63567;49.956;20.130;2022-12-18T06:26:11;98828.06;;;-6.02;82.96
75013;BME280;63567;49.956;20.130;2022-12-18T06:28:37;98826.19;;;-5.95;83.54
75013;BME280;63567;49.956;20.130;2022-12-18T06:31:04;98835.78;;;-6.02;83.00
75013;BME280;63567;49.956;20.130;2022-12-18T06:33:29;98829.66;;;-5.96;82.91
75013;BME280;63567;49.956;20.130;2022-12-18T06:36:03;98832.06;;;-5.91;82.17
75013;BME280;63567;49.956;20.130;2022-12-18T06:38:28;98838.25;;;-5.99;83.43
75013;BME280;63567;49.956;20.130;2022-12-18T06:40:54;98840.69;;;-5.94;83.01
75013;BME280;63567;49.956;20.130;2022-12-18T06:43:19;98850.00;;;-5.91;82.17
75013;BME280;63567;49.956;20.130;2022-12-18T06:45:44;98848.28;;;-5.91;82.44
75013;BME280;63567;49.956;20.130;2022-12-18T06:48:11;98850.19;;;-5.96;83.35
75013;BME280;63567;49.956;20.130;2022-12-18T06:50:36;98850.50;;;-6.10;83.35
75013;BME280;63567;49.956;20.130;2022-12-18T06:53:01;98858.16;;;-6.07;83.28
75013;BME280;63567;49.956;20.130;2022-12-18T06:55:27;98861.41;;;-6.02;82.18
75013;BME280;63567;49.956;20.130;2022-12-18T06:57:52;98864.56;;;-5.92;82.48
75013;BME280;63567;49.956;20.130;2022-12-18T07:00:17;98869.75;;;-5.93;82.70
75013;BME280;63567;49.956;20.130;2022-12-18T07:02:43;98869.66;;;-5.90;82.46
75013;BME280;63567;49.956;20.130;2022-12-18T07:05:08;98877.19;;;-5.84;81.90
75013;BME280;63567;49.956;20.130;2022-12-18T07:07:34;98882.28;;;-5.83;82.15
75013;BME280;63567;49.956;20.130;2022-12-18T07:09:59;98883.38;;;-5.91;82.28
75013;BME280;63567;49.956;20.130;2022-12-18T07:12:26;98885.72;;;-5.84;81.68
75013;BME280;63567;49.956;20.130;2022-12-18T07:14:52;98882.28;;;-5.83;81.48
75013;BME280;63567;49.956;20.130;2022-12-18T07:17:17;98890.72;;;-5.79;81.78
75013;BME280;63567;49.956;20.130;2022-12-18T07:19:42;98883.00;;;-5.78;82.21
75013;BME280;63567;49.956;20.130;2022-12-18T07:22:08;98886.53;;;-5.82;82.17
75013;BME280;63567;49.956;20.130;2022-12-18T07:24:33;98889.84;;;-5.78;82.41
75013;BME280;63567;49.956;20.130;2022-12-18T07:26:59;98904.47;;;-5.82;81.71
75013;BME280;63567;49.956;20.130;2022-12-18T07:29:24;98899.41;;;-5.83;81.57
75013;BME280;63567;49.956;20.130;2022-12-18T07:31:50;98907.00;;;-5.79;81.55
75013;BME280;63567;49.956;20.130;2022-12-18T07:34:15;98915.28;;;-5.69;82.15
75013;BME280;63567;49.956;20.130;2022-12-18T07:36:40;98922.09;;;-5.68;81.58
75013;BME280;63567;49.956;20.130;2022-12-18T07:39:06;98929.81;;;-5.68;81.57
75013;BME280;63567;49.956;20.130;2022-12-18T07:41:31;98934.03;;;-5.67;81.68
75013;BME280;63567;49.956;20.130;2022-12-18T07:43:56;98943.50;;;-5.69;80.98
75013;BME280;63567;49.956;20.130;2022-12-18T07:46:22;98930.75;;;-5.72;82.15
75013;BME280;63567;49.956;20.130;2022-12-18T07:48:47;98940.00;;;-5.66;81.53
75013;BME280;63567;49.956;20.130;2022-12-18T07:51:12;98937.31;;;-5.62;81.35
75013;BME280;63567;49.956;20.130;2022-12-18T07:53:38;98937.25;;;-5.59;81.08
75013;BME280;63567;49.956;20.130;2022-12-18T07:56:09;98940.41;;;-5.49;81.43
75013;BME280;63567;49.956;20.130;2022-12-18T07:58:34;98946.47;;;-5.51;80.91
75013;BME280;63567;49.956;20.130;2022-12-18T08:01:08;98943.34;;;-5.63;82.06
75013;BME280;63567;49.956;20.130;2022-12-18T08:03:34;98940.19;;;-5.72;82.19
75013;BME280;63567;49.956;20.130;2022-12-18T08:06:00;98943.34;;;-5.63;82.01
75013;BME280;63567;49.956;20.130;2022-12-18T08:08:26;98948.03;;;-5.46;80.88
75013;BME280;63567;49.956;20.130;2022-12-18T08:10:51;98957.19;;;-5.35;81.41
75013;BME280;63567;49.956;20.130;2022-12-18T08:13:16;98937.31;;;-5.29;81.05
75013;BME280;63567;49.956;20.130;2022-12-18T08:15:42;98938.22;;;-5.31;81.14
75013;BME280;63567;49.956;20.130;2022-12-18T08:18:07;98953.44;;;-5.24;80.64
75013;BME280;63567;49.956;20.130;2022-12-18T08:20:32;98950.75;;;-5.19;80.34
75013;BME280;63567;49.956;20.130;2022-12-18T08:22:57;98949.94;;;-5.21;80.18
75013;BME280;63567;49.956;20.130;2022-12-18T08:25:23;98955.81;;;-5.16;80.26
75013;BME280;63567;49.956;20.130;2022-12-18T08:27:48;98951.44;;;-5.14;80.48
75013;BME280;63567;49.956;20.130;2022-12-18T08:30:13;98959.09;;;-5.11;79.94
75013;BME280;63567;49.956;20.130;2022-12-18T08:32:39;98964.88;;;-5.04;80.29
75013;BME280;63567;49.956;20.130;2022-12-18T08:35:04;98973.69;;;-5.13;79.83
75013;BME280;63567;49.956;20.130;2022-12-18T08:37:30;98971.53;;;-5.28;79.84
75013;BME280;63567;49.956;20.130;2022-12-18T08:39:55;98965.47;;;-5.26;80.53
75013;BME280;63567;49.956;20.130;2022-12-18T08:42:20;98967.84;;;-5.18;80.26
75013;BME280;63567;49.956;20.130;2022-12-18T08:45:05;98968.56;;;-5.13;80.58
75013;BME280;63567;49.956;20.130;2022-12-18T08:47:30;98965.72;;;-5.04;79.97
75013;BME280;63567;49.956;20.130;2022-12-18T08:49:55;98963.75;;;-4.94;79.74
75013;BME280;63567;49.956;20.130;2022-12-18T08:52:20;98967.06;;;-4.90;79.11
75013;BME280;63567;49.956;20.130;2022-12-18T08:54:46;98970.22;;;-4.81;79.46
75013;BME280;63567;49.956;20.130;2022-12-18T08:57:11;98981.94;;;-4.70;78.96
75013;BME280;63567;49.956;20.130;2022-12-18T08:59:36;98977.38;;;-4.62;78.78
75013;BME280;63567;49.956;20.130;2022-12-18T09:02:01;98979.69;;;-4.53;78.94
75013;BME280;63567;49.956;20.130;2022-12-18T09:04:27;98984.72;;;-4.48;78.53
75013;BME280;63567;49.956;20.130;2022-12-18T09:06:52;98991.56;;;-4.49;78.60
75013;BME280;63567;49.956;20.130;2022-12-18T09:09:20;98992.44;;;-4.50;78.51
75013;BME280;63567;49.956;20.130;2022-12-18T09:11:46;98995.19;;;-4.56;78.26
75013;BME280;63567;49.956;20.130;2022-12-18T09:14:11;98994.72;;;-4.39;78.79
75013;BME280;63567;49.956;20.130;2022-12-18T09:16:36;98995.84;;;-4.20;78.46
75013;BME280;63567;49.956;20.130;2022-12-18T09:19:05;98995.38;;;-4.06;77.75
75013;BME280;63567;49.956;20.130;2022-12-18T09:21:32;99004.06;;;-3.82;77.84
75013;BME280;63567;49.956;20.130;2022-12-18T09:23:58;99005.66;;;-3.78;77.32
75013;BME280;63567;49.956;20.130;2022-12-18T09:26:25;99006.59;;;-3.80;76.83
75013;BME280;63567;49.956;20.130;2022-12-18T09:28:51;99009.88;;;-3.75;77.02
75013;BME280;63567;49.956;20.130;2022-12-18T09:31:18;99007.31;;;-3.75;76.74
75013;BME280;63567;49.956;20.130;2022-12-18T09:33:43;99002.88;;;-3.72;76.48
75013;BME280;63567;49.956;20.130;2022-12-18T09:36:11;99010.00;;;-3.53;76.56
75013;BME280;63567;49.956;20.130;2022-12-18T09:38:37;99006.81;;;-3.35;76.69
75013;BME280;63567;49.956;20.130;2022-12-18T09:41:30;99001.03;;;-3.16;75.23
75013;BME280;63567;49.956;20.130;2022-12-18T09:44:01;99004.41;;;-3.14;75.62
75013;BME280;63567;49.956;20.130;2022-12-18T09:46:31;98998.38;;;-2.90;75.60
75013;BME280;63567;49.956;20.130;2022-12-18T09:49:00;98997.53;;;-2.66;74.52
75013;BME280;63567;49.956;20.130;2022-12-18T09:52:02;98996.44;;;-1.51;71.90
75013;BME280;63567;49.956;20.130;2022-12-18T09:54:37;98997.66;;;-0.79;71.09
75013;BME280;63567;49.956;20.130;2022-12-18T09:57:03;98997.69;;;-0.41;68.39
75013;BME280;63567;49.956;20.130;2022-12-18T09:59:35;98998.97;;;-0.50;67.12
75013;BME280;63567;49.956;20.130;2022-12-18T10:02:17;98998.84;;;-0.10;68.08
75013;BME280;63567;49.956;20.130;2022-12-18T10:04:43;99000.59;;;0.60;66.60
75013;BME280;63567;49.956;20.130;2022-12-18T10:07:20;98993.34;;;1.18;62.84
75013;BME280;63567;49.956;20.130;2022-12-18T10:13:02;98997.16;;;2.08;59.06
75013;BME280;63567;49.956;20.130;2022-12-18T10:15:39;98987.59;;;3.27;55.09
75013;BME280;63567;49.956;20.130;2022-12-18T10:18:19;98977.91;;;3.85;55.52
75013;BME280;63567;49.956;20.130;2022-12-18T10:20:52;98987.28;;;3.61;52.78
75013;BME280;63567;49.956;20.130;2022-12-18T10:23:33;98985.28;;;3.79;51.74
75013;BME280;63567;49.956;20.130;2022-12-18T10:28:31;98992.72;;;5.91;48.94
75013;BME280;63567;49.956;20.130;2022-12-18T10:30:57;98999.63;;;6.05;46.75
75013;BME280;63567;49.956;20.130;2022-12-18T10:33:27;98998.50;;;6.45;46.87
75013;BME280;63567;49.956;20.130;2022-12-18T10:35:53;98995.09;;;7.13;46.17
75013;BME280;63567;49.956;20.130;2022-12-18T10:43:27;98980.50;;;8.64;41.29
75013;BME280;63567;49.956;20.130;2022-12-18T10:48:47;98974.75;;;9.53;41.09
75013;BME280;63567;49.956;20.130;2022-12-18T10:51:25;98976.25;;;9.45;38.09
75013;BME280;63567;49.956;20.130;2022-12-18T10:54:06;98972.84;;;10.44;38.43
75013;BME280;63567;49.956;20.130;2022-12-18T10:56:34;98971.56;;;10.77;37.80
75013;BME280;63567;49.956;20.130;2022-12-18T10:59:05;98971.81;;;10.94;36.66
75013;BME280;63567;49.956;20.130;2022-12-18T11:01:54;98967.81;;;11.92;36.45
75013;BME280;63567;49.956;20.130;2022-12-18T11:04:27;98967.88;;;11.82;36.55
75013;BME280;63567;49.956;20.130;2022-12-18T11:07:02;98974.72;;;12.03;38.06
75013;BME280;63567;49.956;20.130;2022-12-18T11:09:36;98967.97;;;11.25;33.66
75013;BME280;63567;49.956;20.130;2022-12-18T11:12:04;98969.19;;;10.94;34.75
75013;BME280;63567;49.956;20.130;2022-12-18T11:14:43;98965.94;;;9.63;37.60
75013;BME280;63567;49.956;20.130;2022-12-18T11:17:36;98967.44;;;10.55;40.46
75013;BME280;63567;49.956;20.130;2022-12-18T11:20:18;98964.59;;;10.96;39.29
75013;BME280;63567;49.956;20.130;2022-12-18T11:22:57;98957.63;;;11.42;37.71
75013;BME280;63567;49.956;20.130;2022-12-18T11:25:23;98952.94;;;11.36;37.19
75013;BME280;63567;49.956;20.130;2022-12-18T11:27:54;98952.44;;;10.56;39.01
75013;BME280;63567;49.956;20.130;2022-12-18T11:32:52;98943.81;;;7.77;41.76
75013;BME280;63567;49.956;20.130;2022-12-18T11:35:36;98952.22;;;6.45;44.25
75013;BME280;63567;49.956;20.130;2022-12-18T11:38:21;98956.59;;;5.35;44.97
75013;BME280;63567;49.956;20.130;2022-12-18T11:41:10;98945.56;;;3.88;47.09
75013;BME280;63567;49.956;20.130;2022-12-18T11:43:55;98962.31;;;3.57;49.64
75013;BME280;63567;49.956;20.130;2022-12-18T11:46:36;98965.53;;;3.19;51.00
75013;BME280;63567;49.956;20.130;2022-12-18T11:49:11;98968.88;;;2.78;51.87
75013;BME280;63567;49.956;20.130;2022-12-18T11:51:58;98979.38;;;2.46;52.52
75013;BME280;63567;49.956;20.130;2022-12-18T11:54:24;98976.16;;;2.26;52.78
75013;BME280;63567;49.956;20.130;2022-12-18T11:57:07;98984.50;;;2.01;54.37
75013;BME280;63567;49.956;20.130;2022-12-18T11:59:48;98983.88;;;1.50;53.81
75013;BME280;63567;49.956;20.130;2022-12-18T12:05:24;98971.97;;;0.79;55.94
75013;BME280;63567;49.956;20.130;2022-12-18T12:10:37;98993.06;;;0.38;57.47
75013;BME280;63567;49.956;20.130;2022-12-18T12:13:25;98984.72;;;-0.22;59.12
75013;BME280;63567;49.956;20.130;2022-12-18T12:19:02;98982.66;;;-0.15;61.67
75013;BME280;63567;49.956;20.130;2022-12-18T12:24:19;98985.03;;;-0.47;59.45
75013;BME280;63567;49.956;20.130;2022-12-18T12:32:28;98982.28;;;-0.44;64.64
75013;BME280;63567;49.956;20.130;2022-12-18T12:40:32;98996.09;;;-0.63;64.04
75013;BME280;63567;49.956;20.130;2022-12-18T12:43:22;98997.34;;;-0.71;61.97
75013;BME280;63567;49.956;20.130;2022-12-18T12:45:52;99011.59;;;-1.02;61.08
75013;BME280;63567;49.956;20.130;2022-12-18T12:50:49;99018.66;;;-1.26;62.25
75013;BME280;63567;49.956;20.130;2022-12-18T12:53:29;99024.28;;;-1.16;63.58
75013;BME280;63567;49.956;20.130;2022-12-18T12:55:56;99025.06;;;-1.14;64.54
75013;BME280;63567;49.956;20.130;2022-12-18T12:58:51;99033.16;;;-1.01;65.71
75013;BME280;63567;49.956;20.130;2022-12-18T13:01:27;99030.00;;;-1.08;66.03
75013;BME280;63567;49.956;20.130;2022-12-18T13:04:06;99033.28;;;-1.25;65.85
75013;BME280;63567;49.956;20.130;2022-12-18T13:06:42;99041.94;;;-1.47;67.31
75013;BME280;63567;49.956;20.130;2022-12-18T13:09:10;99056.13;;;-1.57;67.07
75013;BME280;63567;49.956;20.130;2022-12-18T13:11:39;99054.78;;;-1.45;67.18
75013;BME280;63567;49.956;20.130;2022-12-18T13:14:31;99056.50;;;-1.46;66.93
75013;BME280;63567;49.956;20.130;2022-12-18T13:17:37;99052.34;;;-1.92;68.07
75013;BME280;63567;49.956;20.130;2022-12-18T13:20:11;99056.59;;;-2.13;68.25
75013;BME280;63567;49.956;20.130;2022-12-18T13:22:39;99050.78;;;-2.18;68.97
75013;BME280;63567;49.956;20.130;2022-12-18T13:25:36;99056.53;;;-2.12;68.92
75013;BME280;63567;49.956;20.130;2022-12-18T13:28:06;99060.00;;;-2.13;68.63
75013;BME280;63567;49.956;20.130;2022-12-18T13:38:32;99053.34;;;-2.89;69.58
75013;BME280;63567;49.956;20.130;2022-12-18T13:40:59;99062.03;;;-2.92;69.82
75013;BME280;63567;49.956;20.130;2022-12-18T13:43:30;99062.78;;;-2.88;69.21
75013;BME280;63567;49.956;20.130;2022-12-18T13:48:52;99066.44;;;-2.70;69.55
75013;BME280;63567;49.956;20.130;2022-12-18T13:51:19;99067.31;;;-2.71;69.25
75013;BME280;63567;49.956;20.130;2022-12-18T13:53:51;99072.47;;;-2.71;69.46
75013;BME280;63567;49.956;20.130;2022-12-18T13:56:17;99083.06;;;-2.79;69.38
75013;BME280;63567;49.956;20.130;2022-12-18T13:58:43;99084.75;;;-2.78;69.91
75013;BME280;63567;49.956;20.130;2022-12-18T14:01:22;99090.69;;;-2.76;68.48
75013;BME280;63567;49.956;20.130;2022-12-18T14:03:47;99095.34;;;-2.85;69.05
75013;BME280;63567;49.956;20.130;2022-12-18T14:06:13;99094.72;;;-2.92;69.21
75013;BME280;63567;49.956;20.130;2022-12-18T14:08:39;99096.03;;;-3.05;69.63
75013;BME280;63567;49.956;20.130;2022-12-18T14:11:06;99089.38;;;-3.13;69.69
75013;BME280;63567;49.956;20.130;2022-12-18T14:13:36;99092.19;;;-3.19;69.75
75013;BME280;63567;49.956;20.130;2022-12-18T14:16:04;99100.84;;;-3.21;69.42
75013;BME280;63567;49.956;20.130;2022-12-18T14:18:43;99096.63;;;-3.24;69.10
75013;BME280;63567;49.956;20.130;2022-12-18T14:21:21;99101.41;;;-3.38;69.20